Time;durP1;ratioP1;P1;durP2;ratioP2;P2;SDS_P1;SDS_P2;PMS_P1;PMS_P2;Temp;Humidity;BMP_temperature;BMP_pressure;BME280_temperature;BME280_humidity;BME280_pressure;Samples;Min_cycle;Max_cycle;Signal;HPM_P1;HPM_P2
2022/04/03 00:00:06;;;;;;;;;;;;;;;1.99;100.00;100092.88;5096801;28;19924;-78
2022/04/03 00:02:34;;;;;;;;;;;;;;;1.97;100.00;100097.91;5096521;28;19924;-78
2022/04/03 00:05:01;;;;;;;;;;;;;;;1.94;100.00;100092.31;5078349;28;19929;-79
2022/04/03 00:07:28;;;;;;;;;;;;;;;1.97;100.00;100089.66;5078144;28;20014;-78
2022/04/03 00:09:55;;;;;;;;;;;;;;;1.95;100.00;100091.97;5096381;28;19970;-78
2022/04/03 00:12:23;;;;;;;;;;;;;;;1.83;100.00;100089.97;5096249;28;20260;-78
2022/04/03 00:14:50;;;;;;;;;;;;;;;1.84;100.00;100091.59;5096173;28;20275;-78
2022/04/03 00:17:18;;;;;;;;;;;;;;;2.04;100.00;100091.84;5096279;28;19930;-78
2022/04/03 00:19:45;;;;;;;;;;;;;;;2.09;100.00;100086.13;5096304;28;20378;-78
2022/04/03 00:22:12;;;;;;;;;;;;;;;2.00;100.00;100088.16;5077884;28;19987;-78
2022/04/03 00:24:39;;;;;;;;;;;;;;;1.86;100.00;100078.25;5077959;28;19928;-78
2022/04/03 00:27:07;;;;;;;;;;;;;;;1.79;100.00;100089.03;5096088;28;20319;-78
2022/04/03 00:29:34;;;;;;;;;;;;;;;1.75;100.00;100079.84;5095957;28;20011;-78
2022/04/03 00:32:02;;;;;;;;;;;;;;;1.68;100.00;100085.09;5077948;28;19927;-78
2022/04/03 00:34:29;;;;;;;;;;;;;;;1.62;100.00;100086.47;5095805;28;19928;-78
2022/04/03 00:36:56;;;;;;;;;;;;;;;1.58;100.00;100088.28;5077671;28;19928;-78
2022/04/03 00:39:23;;;;;;;;;;;;;;;1.52;100.00;100084.16;5095334;28;20298;-78
2022/04/03 00:41:50;;;;;;;;;;;;;;;1.48;100.00;100085.97;5077934;28;20286;-78
2022/04/03 00:44:18;;;;;;;;;;;;;;;1.57;100.00;100081.19;5095621;28;20363;-78
2022/04/03 00:46:46;;;;;;;;;;;;;;;1.55;100.00;100077.16;5095817;28;19924;-78
2022/04/03 00:49:14;;;;;;;;;;;;;;;1.70;100.00;100068.22;5095303;28;20107;-78
2022/04/03 00:51:41;;;;;;;;;;;;;;;1.57;100.00;100072.94;5095590;28;20410;-78
2022/04/03 00:54:08;;;;;;;;;;;;;;;1.61;100.00;100073.84;5095490;28;19966;-78
2022/04/03 00:56:36;;;;;;;;;;;;;;;1.57;100.00;100078.44;5095564;28;19924;-78
2022/04/03 00:59:03;;;;;;;;;;;;;;;1.52;100.00;100072.31;5095582;28;19939;-78
2022/04/03 01:01:30;;;;;;;;;;;;;;;1.48;100.00;100072.22;5095556;28;19946;-78
2022/04/03 01:03:58;;;;;;;;;;;;;;;1.50;100.00;100074.63;5095087;28;20438;-78
2022/04/03 01:06:25;;;;;;;;;;;;;;;1.35;100.00;100066.97;5095418;28;20253;-78
2022/04/03 01:08:53;;;;;;;;;;;;;;;1.39;100.00;100068.72;5095715;28;19928;-78
2022/04/03 01:11:21;;;;;;;;;;;;;;;1.40;100.00;100064.81;5061038;28;19931;-78
2022/04/03 01:13:50;;;;;;;;;;;;;;;0.98;100.00;100078.97;5077240;28;20290;-79
2022/04/03 01:16:17;;;;;;;;;;;;;;;0.75;100.00;100069.41;5095222;28;19963;-78
2022/04/03 01:18:45;;;;;;;;;;;;;;;0.73;100.00;100078.00;5094851;28;20313;-78
2022/04/03 01:21:12;;;;;;;;;;;;;;;0.97;100.00;100071.88;5043776;28;19931;-78
2022/04/03 01:23:40;;;;;;;;;;;;;;;1.16;100.00;100074.94;5095007;28;20046;-78
2022/04/03 01:26:08;;;;;;;;;;;;;;;1.19;100.00;100068.75;5094585;28;19924;-78
2022/04/03 01:28:35;;;;;;;;;;;;;;;1.03;100.00;100079.56;5095295;28;20351;-78
2022/04/03 01:31:02;;;;;;;;;;;;;;;0.98;100.00;100074.28;5095148;28;19930;-78
2022/04/03 01:33:29;;;;;;;;;;;;;;;1.09;100.00;100078.22;5094655;28;20342;-78
2022/04/03 01:35:57;;;;;;;;;;;;;;;1.10;100.00;100079.03;5094853;28;20329;-78
2022/04/03 01:38:24;;;;;;;;;;;;;;;1.10;100.00;100079.84;5076801;28;20378;-78
2022/04/03 01:40:51;;;;;;;;;;;;;;;0.73;100.00;100075.25;5094837;28;20390;-78
2022/04/03 01:43:18;;;;;;;;;;;;;;;0.77;100.00;100069.91;5094885;28;19924;-78
2022/04/03 01:45:45;;;;;;;;;;;;;;;0.41;100.00;100078.69;5094684;28;19924;-78
2022/04/03 01:48:13;;;;;;;;;;;;;;;0.68;100.00;100075.44;5094443;28;20272;-78
2022/04/03 01:50:40;;;;;;;;;;;;;;;0.38;100.00;100076.63;5060436;28;20428;-78
2022/04/03 01:53:07;;;;;;;;;;;;;;;0.57;100.00;100073.44;5094620;28;19947;-79
2022/04/03 01:55:34;;;;;;;;;;;;;;;0.65;100.00;100070.63;5094749;28;20437;-78
2022/04/03 01:58:08;;;;;;;;;;;;;;;0.61;100.00;100066.13;5094583;28;20325;-78
2022/04/03 02:00:35;;;;;;;;;;;;;;;0.61;100.00;100061.44;5076585;28;19928;-78
2022/04/03 02:03:02;;;;;;;;;;;;;;;0.72;100.00;100054.41;5094151;28;20398;-78
2022/04/03 02:05:29;;;;;;;;;;;;;;;0.71;100.00;100055.53;5094473;28;20031;-78
2022/04/03 02:07:57;;;;;;;;;;;;;;;0.53;100.00;100056.78;5060241;28;19930;-78
2022/04/03 02:10:24;;;;;;;;;;;;;;;0.45;100.00;100052.16;5094407;28;20382;-78
2022/04/03 02:12:51;;;;;;;;;;;;;;;0.49;100.00;100055.03;5094330;28;19931;-78
2022/04/03 02:15:20;;;;;;;;;;;;;;;0.47;100.00;100052.63;5094291;28;19924;-78
2022/04/03 02:17:48;;;;;;;;;;;;;;;0.71;100.00;100044.53;5093895;28;19924;-78
2022/04/03 02:20:15;;;;;;;;;;;;;;;0.82;100.00;100051.25;5094196;28;19931;-78
2022/04/03 02:22:42;;;;;;;;;;;;;;;0.81;100.00;100049.63;5094361;28;20282;-78
2022/04/03 02:25:11;;;;;;;;;;;;;;;0.56;100.00;100038.81;5059596;28;20282;-78
2022/04/03 02:27:38;;;;;;;;;;;;;;;0.78;100.00;100042.06;5094133;28;19924;-78
2022/04/03 02:30:08;;;;;;;;;;;;;;;0.94;100.00;100040.28;5094115;28;20362;-78
2022/04/03 02:32:40;;;;;;;;;;;;;;;0.36;100.00;100039.59;5075966;28;19924;-79
2022/04/03 02:35:09;;;;;;;;;;;;;;;0.10;100.00;100039.75;5075873;28;19930;-78
2022/04/03 02:37:37;;;;;;;;;;;;;;;0.29;100.00;100048.38;5076766;28;19928;-78
2022/04/03 02:40:06;;;;;;;;;;;;;;;0.37;100.00;100036.53;5098319;28;19928;-78
2022/04/03 02:42:33;;;;;;;;;;;;;;;0.66;100.00;100032.91;5080099;28;19931;-78
2022/04/03 02:45:01;;;;;;;;;;;;;;;0.94;100.00;100034.78;5097903;28;19931;-78
2022/04/03 02:47:28;;;;;;;;;;;;;;;1.14;100.00;100033.16;5097843;28;19924;-78
2022/04/03 02:49:55;;;;;;;;;;;;;;;1.25;100.00;100035.19;5079949;28;19955;-78
2022/04/03 02:52:22;;;;;;;;;;;;;;;1.31;100.00;100028.31;5080155;28;20334;-78
2022/04/03 02:54:49;;;;;;;;;;;;;;;1.40;100.00;100023.50;5079925;28;19924;-78
2022/04/03 02:57:17;;;;;;;;;;;;;;;1.39;100.00;100023.84;5080155;28;19928;-78
2022/04/03 02:59:44;;;;;;;;;;;;;;;1.40;100.00;100015.25;5097523;28;19935;-78
2022/04/03 03:02:11;;;;;;;;;;;;;;;1.15;100.00;100015.53;5079686;28;19924;-78
2022/04/03 03:04:38;;;;;;;;;;;;;;;1.19;100.00;100014.50;5046410;28;19931;-78
2022/04/03 03:07:06;;;;;;;;;;;;;;;1.34;100.00;100013.88;5079729;28;19931;-78
2022/04/03 03:09:33;;;;;;;;;;;;;;;1.44;100.00;100015.38;5062776;28;19924;-78
2022/04/03 03:12:00;;;;;;;;;;;;;;;1.01;100.00;100013.06;5079591;28;19939;-78
2022/04/03 03:14:27;;;;;;;;;;;;;;;1.51;100.00;100021.94;5097149;28;19924;-79
2022/04/03 03:16:55;;;;;;;;;;;;;;;0.97;100.00;100020.34;5097346;28;19927;-78
2022/04/03 03:19:22;;;;;;;;;;;;;;;1.33;100.00;100015.00;5079457;28;19983;-78
2022/04/03 03:21:50;;;;;;;;;;;;;;;1.54;100.00;100018.50;5062943;28;20410;-78
2022/04/03 03:24:17;;;;;;;;;;;;;;;1.41;100.00;100016.84;5079140;28;20031;-78
2022/04/03 03:26:44;;;;;;;;;;;;;;;1.65;100.00;100011.41;5097394;28;19954;-78
2022/04/03 03:29:12;;;;;;;;;;;;;;;1.78;100.00;100014.97;5097017;28;19924;-78
2022/04/03 03:31:39;;;;;;;;;;;;;;;1.84;100.00;100019.13;5079026;28;19931;-79
2022/04/03 03:34:06;;;;;;;;;;;;;;;1.92;100.00;100020.16;5062297;28;19968;-79
2022/04/03 03:36:33;;;;;;;;;;;;;;;1.94;100.00;100017.88;5079149;28;20019;-79
2022/04/03 03:39:00;;;;;;;;;;;;;;;1.86;100.00;100014.09;5062255;28;19939;-78
2022/04/03 03:41:28;;;;;;;;;;;;;;;1.94;100.00;100012.38;5062310;28;19924;-79
2022/04/03 03:43:55;;;;;;;;;;;;;;;1.88;100.00;100008.22;5096420;28;19932;-78
2022/04/03 03:46:22;;;;;;;;;;;;;;;1.69;100.00;100006.84;5096951;28;19931;-78
2022/04/03 03:48:49;;;;;;;;;;;;;;;1.71;100.00;100012.78;5096497;28;19989;-78
2022/04/03 03:51:16;;;;;;;;;;;;;;;1.58;100.00;100011.16;5062235;28;20286;-78
2022/04/03 03:53:45;;;;;;;;;;;;;;;1.01;100.00;100007.56;5078425;28;19998;-79
2022/04/03 03:56:12;;;;;;;;;;;;;;;1.36;100.00;100011.56;5078972;28;19931;-78
2022/04/03 03:58:39;;;;;;;;;;;;;;;1.51;100.00;100008.19;5096324;28;19935;-78
2022/04/03 04:01:06;;;;;;;;;;;;;;;1.75;100.00;100010.16;5062012;28;19924;-78
2022/04/03 04:03:33;;;;;;;;;;;;;;;1.33;100.00;100003.97;5096426;28;19924;-78
2022/04/03 04:06:00;;;;;;;;;;;;;;;1.82;100.00;100005.69;5078448;28;20023;-78
2022/04/03 04:08:27;;;;;;;;;;;;;;;1.28;100.00;99995.94;5078487;28;19924;-78
2022/04/03 04:10:54;;;;;;;;;;;;;;;1.57;100.00;99994.97;5096341;28;19932;-79
2022/04/03 04:13:22;;;;;;;;;;;;;;;1.60;100.00;100008.06;5096044;28;20275;-78
2022/04/03 04:15:49;;;;;;;;;;;;;;;1.64;100.00;100004.28;5078492;28;20274;-78
2022/04/03 04:18:16;;;;;;;;;;;;;;;1.88;100.00;100002.72;5096098;28;19924;-79
2022/04/03 04:20:43;;;;;;;;;;;;;;;1.89;100.00;100000.41;5096308;28;20019;-79
2022/04/03 04:23:10;;;;;;;;;;;;;;;2.04;100.00;100003.63;5078383;28;19928;-78
2022/04/03 04:25:37;;;;;;;;;;;;;;;1.76;100.00;99996.03;5096082;28;20387;-78
2022/04/03 04:28:05;;;;;;;;;;;;;;;1.99;100.00;100001.09;5095854;28;19935;-78
2022/04/03 04:30:33;;;;;;;;;;;;;;;2.07;100.00;100000.19;5096082;28;19963;-79
2022/04/03 04:33:00;;;;;;;;;;;;;;;2.11;100.00;100014.88;5095831;28;19970;-79
2022/04/03 04:35:27;;;;;;;;;;;;;;;1.69;100.00;100006.84;5077939;28;19931;-78
2022/04/03 04:37:54;;;;;;;;;;;;;;;1.84;100.00;100003.41;5095875;28;20031;-79
2022/04/03 04:40:21;;;;;;;;;;;;;;;1.80;100.00;99991.44;5095857;28;20379;-78
2022/04/03 04:42:49;;;;;;;;;;;;;;;2.07;100.00;99998.25;5077565;28;19924;-78
2022/04/03 04:45:18;;;;;;;;;;;;;;;2.34;100.00;99999.47;5095823;28;20008;-78
2022/04/03 04:47:48;;;;;;;;;;;;;;;2.15;100.00;99991.00;5077431;28;19931;-78
2022/04/03 04:50:15;;;;;;;;;;;;;;;2.35;100.00;99992.81;5095724;28;19982;-78
2022/04/03 04:52:43;;;;;;;;;;;;;;;2.31;100.00;99989.13;5077709;28;19924;-79
2022/04/03 04:55:10;;;;;;;;;;;;;;;2.22;100.00;99992.03;5095452;28;19924;-78
2022/04/03 04:57:37;;;;;;;;;;;;;;;1.99;100.00;99987.31;5095291;28;19931;-78
2022/04/03 05:00:06;;;;;;;;;;;;;;;1.79;100.00;99989.84;5094665;28;19927;-78
2022/04/03 05:02:33;;;;;;;;;;;;;;;2.33;100.00;99986.84;5095395;28;19972;-79
2022/04/03 05:05:01;;;;;;;;;;;;;;;2.09;100.00;99987.66;5095422;28;19931;-78
2022/04/03 05:07:28;;;;;;;;;;;;;;;1.91;100.00;99991.78;5077343;28;19924;-78
2022/04/03 05:09:55;;;;;;;;;;;;;;;2.22;100.00;99986.50;5095123;28;19927;-78
2022/04/03 05:12:22;;;;;;;;;;;;;;;2.15;100.00;99996.50;5094976;28;19924;-78
2022/04/03 05:14:49;;;;;;;;;;;;;;;2.46;100.00;99980.16;5095106;28;19928;-78
2022/04/03 05:17:18;;;;;;;;;;;;;;;2.67;100.00;99980.78;5095099;28;19924;-78
2022/04/03 05:19:45;;;;;;;;;;;;;;;2.99;100.00;99980.56;5095027;28;19935;-78
2022/04/03 05:22:12;;;;;;;;;;;;;;;3.06;100.00;99982.75;5095034;28;19926;-78
2022/04/03 05:24:39;;;;;;;;;;;;;;;3.37;100.00;99974.50;5094731;28;19924;-78
2022/04/03 05:27:06;;;;;;;;;;;;;;;3.67;100.00;99975.69;5094646;28;19924;-78
2022/04/03 05:29:37;;;;;;;;;;;;;;;4.04;100.00;99967.94;5094869;28;19924;-78
2022/04/03 05:32:05;;;;;;;;;;;;;;;4.13;100.00;99974.91;5092868;28;20359;-78
2022/04/03 05:34:32;;;;;;;;;;;;;;;4.29;100.00;99964.59;5094506;28;19966;-78
2022/04/03 05:37:00;;;;;;;;;;;;;;;4.80;100.00;99968.88;5094602;28;19925;-78
2022/04/03 05:39:27;;;;;;;;;;;;;;;4.81;100.00;99964.97;5093912;28;19930;-78
2022/04/03 05:41:55;;;;;;;;;;;;;;;5.03;100.00;99957.88;5094335;28;19931;-77
2022/04/03 05:44:23;;;;;;;;;;;;;;;4.96;100.00;99966.06;5075886;28;20007;-78
2022/04/03 05:46:54;;;;;;;;;;;;;;;5.32;100.00;99960.84;5094189;28;19943;-77
2022/04/03 05:49:48;;;;;;;;;;;;;;;5.11;100.00;99974.28;5079995;28;20286;-78
2022/04/03 05:52:15;;;;;;;;;;;;;;;5.16;100.00;99968.47;5060185;28;19934;-78
2022/04/03 05:54:42;;;;;;;;;;;;;;;5.16;100.00;99960.16;5094429;28;19924;-77
2022/04/03 05:57:10;;;;;;;;;;;;;;;5.15;100.00;99958.53;5076565;28;19924;-78
2022/04/03 05:59:37;;;;;;;;;;;;;;;4.82;100.00;99960.22;5076755;28;19951;-77
2022/04/03 06:02:05;;;;;;;;;;;;;;;5.07;100.00;99967.88;5076675;28;19928;-78
2022/04/03 06:04:33;;;;;;;;;;;;;;;5.43;100.00;99961.88;5094156;28;19924;-77
2022/04/03 06:07:00;;;;;;;;;;;;;;;5.30;100.00;99960.41;5094279;28;19928;-77
2022/04/03 06:09:27;;;;;;;;;;;;;;;5.63;100.00;99965.38;5059175;28;19924;-77
2022/04/03 06:11:54;;;;;;;;;;;;;;;5.68;100.00;99955.97;5094452;28;20018;-80
2022/04/03 06:14:21;;;;;;;;;;;;;;;5.70;100.00;99961.91;5076674;28;20014;-79
2022/04/03 06:16:48;;;;;;;;;;;;;;;5.55;100.00;99963.66;5060075;28;19924;-80
2022/04/03 06:19:15;;;;;;;;;;;;;;;5.74;100.00;99952.50;5076471;28;19927;-79
2022/04/03 06:21:43;;;;;;;;;;;;;;;5.90;100.00;99949.63;5094578;28;19925;-80
2022/04/03 06:24:10;;;;;;;;;;;;;;;5.99;100.00;99947.41;5076087;28;19924;-80
2022/04/03 06:26:37;;;;;;;;;;;;;;;5.80;100.00;99959.31;5094701;28;19925;-80
2022/04/03 06:29:05;;;;;;;;;;;;;;;5.69;100.00;99957.56;5076244;28;19931;-80
2022/04/03 06:31:32;;;;;;;;;;;;;;;5.57;100.00;99948.25;5094353;28;19924;-80
2022/04/03 06:34:01;;;;;;;;;;;;;;;5.59;100.00;99957.00;5094297;28;19947;-80
2022/04/03 06:36:28;;;;;;;;;;;;;;;5.55;100.00;99963.66;5076369;28;19931;-80
2022/04/03 06:38:55;;;;;;;;;;;;;;;5.77;100.00;99967.59;5076338;28;20335;-80
2022/04/03 06:41:23;;;;;;;;;;;;;;;5.67;100.00;99955.16;5094134;28;20390;-80
2022/04/03 06:43:50;;;;;;;;;;;;;;;5.65;100.00;99954.72;5059328;28;19924;-80
2022/04/03 06:46:18;;;;;;;;;;;;;;;5.91;100.00;99965.13;5059982;28;20463;-80
2022/04/03 06:48:45;;;;;;;;;;;;;;;5.86;100.00;99959.88;5076735;28;20077;-80
2022/04/03 06:51:12;;;;;;;;;;;;;;;5.95;100.00;99957.66;5076346;28;20381;-80
2022/04/03 06:53:40;;;;;;;;;;;;;;;6.22;100.00;99967.59;5075799;28;19973;-80
2022/04/03 06:56:07;;;;;;;;;;;;;;;6.14;100.00;99968.66;5094307;28;19977;-80
2022/04/03 06:58:35;;;;;;;;;;;;;;;6.07;100.00;99965.75;5094289;28;19928;-80
2022/04/03 07:01:03;;;;;;;;;;;;;;;6.55;100.00;99964.91;5076114;28;19928;-81
2022/04/03 07:03:32;;;;;;;;;;;;;;;6.26;100.00;99976.75;5059399;28;20276;-80
2022/04/03 07:05:59;;;;;;;;;;;;;;;6.40;100.00;99975.03;5093865;28;19993;-80
2022/04/03 07:08:28;;;;;;;;;;;;;;;6.43;100.00;99962.34;5059536;28;19970;-81
2022/04/03 07:10:55;;;;;;;;;;;;;;;6.61;100.00;99967.00;5094119;28;19959;-80
2022/04/03 07:13:22;;;;;;;;;;;;;;;6.13;100.00;99967.06;5076119;28;19924;-80
2022/04/03 07:15:49;;;;;;;;;;;;;;;5.87;100.00;99962.28;5075737;28;19946;-80
2022/04/03 07:18:17;;;;;;;;;;;;;;;6.20;100.00;99961.59;5076118;28;19931;-80
2022/04/03 07:20:48;;;;;;;;;;;;;;;6.29;100.00;99962.13;5075929;28;19924;-80
2022/04/03 07:23:15;;;;;;;;;;;;;;;6.52;100.00;99960.09;5043331;28;19928;-80
2022/04/03 07:25:42;;;;;;;;;;;;;;;6.61;100.00;99946.75;5098022;28;19924;-81
2022/04/03 07:28:09;;;;;;;;;;;;;;;6.87;100.00;99950.28;5063304;28;19931;-80
2022/04/03 07:30:36;;;;;;;;;;;;;;;6.68;100.00;99947.66;5063216;28;19924;-81
2022/04/03 07:33:04;;;;;;;;;;;;;;;6.57;100.00;99951.47;5079779;28;19931;-80
2022/04/03 07:35:31;;;;;;;;;;;;;;;6.92;100.00;99961.06;5079516;28;19930;-81
2022/04/03 07:37:58;;;;;;;;;;;;;;;7.19;100.00;99953.44;5062960;28;19924;-81
2022/04/03 07:40:25;;;;;;;;;;;;;;;7.07;100.00;99953.72;5063022;28;19928;-81
2022/04/03 07:43:02;;;;;;;;;;;;;;;6.60;100.00;99945.16;5097848;28;20001;-81
2022/04/03 07:45:29;;;;;;;;;;;;;;;6.95;100.00;99951.19;5060299;28;19924;-80
2022/04/03 07:47:58;;;;;;;;;;;;;;;6.82;100.00;99955.38;5039461;28;20253;-81
2022/04/03 07:50:25;;;;;;;;;;;;;;;7.00;100.00;99956.38;5038998;28;19936;-81
2022/04/03 07:52:52;;;;;;;;;;;;;;;7.07;100.00;99953.72;5057203;28;19925;-81
2022/04/03 07:55:19;;;;;;;;;;;;;;;7.03;100.00;99944.50;5055625;28;19968;-81
2022/04/03 07:57:47;;;;;;;;;;;;;;;6.84;100.00;99939.13;5022862;28;19925;-81
2022/04/03 08:00:15;;;;;;;;;;;;;;;6.91;100.00;99944.75;5057390;28;19932;-81
2022/04/03 08:02:42;;;;;;;;;;;;;;;7.04;100.00;99943.34;5056952;28;19924;-81
2022/04/03 08:05:10;;;;;;;;;;;;;;;6.83;100.00;99945.88;5038674;28;19924;-81
2022/04/03 08:07:38;;;;;;;;;;;;;;;6.61;100.00;99950.34;5039164;28;19925;-84
2022/04/03 08:10:08;;;;;;;;;;;;;;;6.62;100.00;99942.81;5055307;28;20029;-75
2022/04/03 08:12:36;;;;;;;;;;;;;;;6.63;100.00;99944.41;5050199;28;19929;-76
2022/04/03 08:15:04;;;;;;;;;;;;;;;6.83;100.00;99943.88;5047896;28;20559;-77
2022/04/03 08:17:32;;;;;;;;;;;;;;;6.73;100.00;99950.09;5051825;28;20505;-75
2022/04/03 08:19:59;;;;;;;;;;;;;;;6.98;100.00;99945.66;5052356;28;19925;-76
2022/04/03 08:22:26;;;;;;;;;;;;;;;6.74;100.00;99956.47;5052485;28;20617;-80
2022/04/03 08:24:53;;;;;;;;;;;;;;;6.73;100.00;99947.31;5052801;28;19939;-80
2022/04/03 08:27:20;;;;;;;;;;;;;;;6.68;100.00;99952.41;5053799;28;19924;-81
2022/04/03 08:29:47;;;;;;;;;;;;;;;6.88;100.00;99956.63;5053070;28;19974;-81
2022/04/03 08:32:15;;;;;;;;;;;;;;;6.64;100.00;99957.91;5053539;28;19925;-81
2022/04/03 08:34:42;;;;;;;;;;;;;;;6.78;100.00;99962.84;5052577;28;19964;-81
2022/04/03 08:37:10;;;;;;;;;;;;;;;6.91;100.00;99955.88;5052418;28;19924;-81
2022/04/03 08:39:38;;;;;;;;;;;;;;;7.06;100.00;99960.44;5053927;28;20016;-81
2022/04/03 08:42:06;;;;;;;;;;;;;;;6.93;100.00;99964.63;5038569;28;19936;-80
2022/04/03 08:44:33;;;;;;;;;;;;;;;7.00;100.00;99962.75;5071837;28;20004;-81
2022/04/03 08:47:01;;;;;;;;;;;;;;;7.05;100.00;99954.09;5061831;28;20252;-81
2022/04/03 08:49:31;;;;;;;;;;;;;;;6.84;100.00;99961.34;5094529;28;20023;-82
2022/04/03 08:51:59;;;;;;;;;;;;;;;6.83;100.00;99959.75;5077808;28;20010;-81
2022/04/03 08:54:26;;;;;;;;;;;;;;;6.95;100.00;99963.06;5094659;28;19952;-82
2022/04/03 08:56:54;;;;;;;;;;;;;;;6.83;100.00;99956.97;5094471;28;19924;-82
2022/04/03 08:59:21;;;;;;;;;;;;;;;6.77;100.00;99962.06;5094460;28;19997;-81
2022/04/03 09:01:49;;;;;;;;;;;;;;;6.60;100.00;99972.94;5096063;28;19931;-82
2022/04/03 09:04:20;;;;;;;;;;;;;;;6.68;100.00;99969.09;5093917;28;20489;-83
2022/04/03 09:06:58;;;;;;;;;;;;;;;6.29;100.00;99962.13;5095177;28;20057;-81
2022/04/03 09:09:25;;;;;;;;;;;;;;;6.24;100.00;99970.81;5077454;28;19924;-82
2022/04/03 09:12:09;;;;;;;;;;;;;;;6.91;100.00;99969.75;5078964;28;19931;-84
2022/04/03 09:14:44;;;;;;;;;;;;;;;7.05;100.00;99964.41;5055602;28;19936;-76
2022/04/03 09:17:11;;;;;;;;;;;;;;;7.49;100.00;99958.94;5055015;28;20361;-77
2022/04/03 09:19:38;;;;;;;;;;;;;;;7.88;100.00;99960.09;5089689;28;19977;-76
2022/04/03 09:22:05;;;;;;;;;;;;;;;7.64;100.00;99957.88;5091486;28;19928;-76
2022/04/03 09:24:36;;;;;;;;;;;;;;;7.09;100.00;99929.91;5091514;28;19961;-76
2022/04/03 09:27:04;;;;;;;;;;;;;;;7.60;100.00;99955.09;5091003;28;20342;-76
2022/04/03 09:29:31;;;;;;;;;;;;;;;7.85;100.00;99953.34;5091172;28;19928;-77
2022/04/03 09:32:02;;;;;;;;;;;;;;;8.22;100.00;99942.09;5090503;28;20034;-78
2022/04/03 09:34:29;;;;;;;;;;;;;;;8.01;100.00;99945.50;5091277;28;20330;-79
2022/04/03 09:36:57;;;;;;;;;;;;;;;7.78;100.00;99949.69;5073088;28;20276;-79
2022/04/03 09:39:29;;;;;;;;;;;;;;;7.82;100.00;99942.16;5091665;28;19929;-80
2022/04/03 09:42:04;;;;;;;;;;;;;;;7.76;100.00;99943.69;5091576;28;19924;-78
2022/04/03 09:44:42;;;;;;;;;;;;;;;7.97;100.00;99946.66;5090990;28;19935;-77
2022/04/03 09:47:13;;;;;;;;;;;;;;;8.26;100.00;99949.31;5090351;28;19954;-78
2022/04/03 09:49:41;;;;;;;;;;;;;;;7.89;100.00;99948.59;5053366;28;20295;-79
2022/04/03 09:52:09;;;;;;;;;;;;;;;8.20;100.00;99938.91;5069625;28;20385;-79
2022/04/03 09:54:37;;;;;;;;;;;;;;;8.20;100.00;99948.06;5069828;28;20403;-78
2022/04/03 09:57:19;;;;;;;;;;;;;;;8.21;100.00;99935.72;5069160;28;19931;-77
2022/04/03 09:59:49;;;;;;;;;;;;;;;7.75;100.00;99934.56;5059397;28;19935;-77
2022/04/03 10:02:16;;;;;;;;;;;;;;;8.09;100.00;99938.81;5072622;28;19924;-77
2022/04/03 10:04:44;;;;;;;;;;;;;;;8.34;100.00;99939.84;5091318;28;19924;-78
2022/04/03 10:07:13;;;;;;;;;;;;;;;8.17;100.00;99934.09;5086870;28;20035;-78
2022/04/03 10:09:43;;;;;;;;;;;;;;;7.80;100.00;99930.63;5069396;28;19930;-78
2022/04/03 10:12:13;;;;;;;;;;;;;;;7.52;100.00;99930.34;5076223;28;19932;-77
2022/04/03 10:14:44;;;;;;;;;;;;;;;7.89;100.00;99925.53;5087319;28;19928;-77
2022/04/03 10:17:12;;;;;;;;;;;;;;;7.90;100.00;99927.94;5078886;28;19929;-77
2022/04/03 10:19:40;;;;;;;;;;;;;;;8.12;100.00;99920.56;5083195;28;19924;-77
2022/04/03 10:22:19;;;;;;;;;;;;;;;8.35;100.00;99916.38;5073772;28;19925;-76
2022/04/03 10:24:49;;;;;;;;;;;;;;;8.58;100.00;99919.69;5081514;28;19928;-77
2022/04/03 10:27:24;;;;;;;;;;;;;;;8.71;100.00;99907.00;5082105;28;19959;-75
2022/04/03 10:29:54;;;;;;;;;;;;;;;8.42;100.00;99907.28;5073372;28;19932;-75
2022/04/03 10:32:25;;;;;;;;;;;;;;;8.58;100.00;99908.56;5078977;28;20440;-76
2022/04/03 10:34:56;;;;;;;;;;;;;;;8.87;100.00;99896.34;5081111;28;20352;-75
2022/04/03 10:37:23;;;;;;;;;;;;;;;8.81;100.00;99894.31;5081664;28;20363;-75
2022/04/03 10:39:54;;;;;;;;;;;;;;;8.97;100.00;99895.59;5068300;28;20592;-75
2022/04/03 10:42:25;;;;;;;;;;;;;;;8.84;100.00;99888.78;5057641;28;20373;-75
2022/04/03 10:45:11;;;;;;;;;;;;;;;8.64;100.00;99890.28;5091407;28;20302;-74
2022/04/03 10:47:43;;;;;;;;;;;;;;;9.54;100.00;99878.97;5104574;28;19930;-74
2022/04/03 10:50:21;;;;;;;;;;;;;;;10.14;100.00;99874.22;5108962;27;20388;-75
2022/04/03 10:52:48;;;;;;;;;;;;;;;10.32;100.00;99866.59;5101842;28;20021;-78
2022/04/03 10:55:21;;;;;;;;;;;;;;;10.25;100.00;99861.81;5083629;28;19927;-77
2022/04/03 10:58:04;;;;;;;;;;;;;;;9.84;100.00;99857.06;5094001;28;19924;-77
2022/04/03 11:00:36;;;;;;;;;;;;;;;9.89;100.00;99857.44;5056153;28;19928;-77
2022/04/03 11:03:29;;;;;;;;;;;;;;;9.57;100.00;99862.25;5093255;28;20018;-73
2022/04/03 11:06:20;;;;;;;;;;;;;;;9.52;100.00;99864.63;5095579;28;20501;-73
2022/04/03 11:08:58;;;;;;;;;;;;;;;9.70;100.00;99859.84;5106080;28;20023;-73
2022/04/03 11:11:31;;;;;;;;;;;;;;;9.74;100.00;99860.66;5106594;28;20386;-76
2022/04/03 11:13:59;;;;;;;;;;;;;;;10.02;100.00;99849.47;5116569;28;19930;-77
2022/04/03 11:16:27;;;;;;;;;;;;;;;9.40;100.00;99851.88;5116714;28;19928;-77
2022/04/03 11:18:54;;;;;;;;;;;;;;;9.42;100.00;99855.03;5117170;28;20314;-77
2022/04/03 11:21:21;;;;;;;;;;;;;;;9.35;100.00;99851.44;5098423;28;19927;-75
2022/04/03 11:27:41;;;;;;;;;;;;;;;9.40;100.00;99839.91;5077502;28;19916;-75
2022/04/03 11:30:08;;;;;;;;;;;;;;;9.59;100.00;99837.53;5055810;28;20291;-76
2022/04/03 11:32:37;;;;;;;;;;;;;;;9.27;100.00;99833.91;5067204;28;19925;-77
2022/04/03 11:35:04;;;;;;;;;;;;;;;8.69;100.00;99825.81;5079541;28;19959;-77
2022/04/03 11:37:49;;;;;;;;;;;;;;;8.67;100.00;99844.91;5083865;28;19960;-76
2022/04/03 11:40:46;;;;;;;;;;;;;;;9.22;100.00;99833.50;5078122;28;20343;-76
2022/04/03 11:43:18;;;;;;;;;;;;;;;9.36;100.00;99823.16;5081294;28;19972;-77
2022/04/03 11:45:52;;;;;;;;;;;;;;;9.19;100.00;99829.53;5045596;28;19925;-76
2022/04/03 11:51:17;;;;;;;;;;;;;;;9.73;100.00;99811.59;5047094;28;19948;-77
2022/04/03 11:53:45;;;;;;;;;;;;;;;9.69;100.00;99802.44;5039037;28;20533;-77
2022/04/03 11:56:14;;;;;;;;;;;;;;;9.99;100.00;99806.41;5034197;28;19933;-77
2022/04/03 11:58:44;;;;;;;;;;;;;;;9.57;100.00;99805.66;5051255;28;20019;-77
2022/04/03 12:01:12;;;;;;;;;;;;;;;10.33;100.00;99803.97;5068783;28;19924;-77
2022/04/03 12:03:39;;;;;;;;;;;;;;;9.31;100.00;99808.81;5057710;28;19925;-77
2022/04/03 12:06:14;;;;;;;;;;;;;;;9.83;100.00;99802.44;5054902;28;19968;-77
2022/04/03 12:08:46;;;;;;;;;;;;;;;9.68;100.00;99798.06;5055109;28;19925;-76
2022/04/03 12:11:31;;;;;;;;;;;;;;;10.01;100.00;99790.03;5055168;28;19932;-77
2022/04/03 12:13:59;;;;;;;;;;;;;;;10.52;100.00;99781.13;5050865;28;19925;-77
2022/04/03 12:16:27;;;;;;;;;;;;;;;10.49;100.00;99784.72;5054119;28;19925;-77
2022/04/03 12:18:55;;;;;;;;;;;;;;;10.75;100.00;99765.41;5037248;28;19940;-77
2022/04/03 12:21:35;;;;;;;;;;;;;;;10.73;100.00;99758.66;5054512;28;19971;-77
2022/04/03 12:24:05;;;;;;;;;;;;;;;10.45;100.00;99781.16;5052605;28;20346;-77
2022/04/03 12:26:37;;;;;;;;;;;;;;;10.70;100.00;99771.47;5045576;28;20513;-77
2022/04/03 12:29:07;;;;;;;;;;;;;;;10.86;100.00;99763.38;5052495;28;20407;-76
2022/04/03 12:31:35;;;;;;;;;;;;;;;11.30;100.00;99762.66;5055235;28;19979;-76
2022/04/03 12:34:15;;;;;;;;;;;;;;;10.30;100.00;99772.03;5055071;28;19925;-76
2022/04/03 12:36:46;;;;;;;;;;;;;;;10.04;100.00;99778.06;5056054;28;19931;-76
2022/04/03 12:39:32;;;;;;;;;;;;;;;10.03;100.00;99768.09;5056634;28;19932;-77
2022/04/03 12:42:18;;;;;;;;;;;;;;;9.91;100.00;99770.50;5055035;28;19924;-77
2022/04/03 12:44:48;;;;;;;;;;;;;;;9.71;100.00;99766.59;5060382;28;19924;-76
2022/04/03 12:47:17;;;;;;;;;;;;;;;9.65;100.00;99757.81;5075732;28;20070;-76
2022/04/03 12:49:44;;;;;;;;;;;;;;;9.19;100.00;99757.03;5059413;28;19925;-76
2022/04/03 12:52:18;;;;;;;;;;;;;;;9.48;100.00;99752.25;5095235;28;19924;-76
2022/04/03 12:54:46;;;;;;;;;;;;;;;9.55;100.00;99741.88;5095252;28;20363;-76
2022/04/03 13:00:14;;;;;;;;;;;;;;;9.92;100.00;99730.25;5095466;28;20008;-77